createdAt,value
2024-01-24T00:02:26.138Z,97.44
2024-01-24T00:04:53.307Z,98.10
2024-01-24T00:07:20.257Z,97.94
2024-01-24T00:09:47.251Z,98.16
2024-01-24T00:12:14.417Z,97.47
2024-01-24T00:14:41.371Z,97.48
2024-01-24T00:17:08.320Z,96.63
2024-01-24T00:19:35.473Z,95.70
2024-01-24T00:22:02.454Z,97.32
2024-01-24T00:24:29.504Z,96.90
2024-01-24T00:26:56.563Z,96.04
2024-01-24T00:29:23.497Z,95.00
2024-01-24T00:31:50.471Z,96.43
2024-01-24T00:34:17.830Z,96.32
2024-01-24T00:36:44.874Z,97.66
2024-01-24T00:39:12.166Z,97.73
2024-01-24T00:41:43.186Z,97.37
2024-01-24T00:44:10.426Z,97.74
2024-01-24T00:46:37.275Z,97.29
2024-01-24T00:49:04.822Z,97.06
2024-01-24T00:51:31.771Z,97.55
2024-01-24T00:53:59.112Z,97.33
2024-01-24T00:56:26.032Z,95.50
2024-01-24T00:58:53.034Z,94.57
2024-01-24T01:01:21.114Z,96.99
2024-01-24T01:03:48.460Z,97.52
2024-01-24T01:06:16.108Z,98.46
2024-01-24T01:08:43.449Z,97.93
2024-01-24T01:11:10.495Z,97.36
2024-01-24T01:13:37.439Z,95.64
2024-01-24T01:16:04.930Z,96.82
2024-01-24T01:18:31.922Z,98.14
2024-01-24T01:20:58.841Z,97.03
2024-01-24T01:23:25.809Z,96.27
2024-01-24T01:25:53.726Z,97.25
2024-01-24T01:28:20.653Z,96.79
2024-01-24T01:30:47.661Z,97.73
2024-01-24T01:33:14.833Z,97.02
2024-01-24T01:35:41.812Z,96.82
2024-01-24T01:38:08.788Z,96.59
2024-01-24T01:40:35.646Z,96.63
2024-01-24T01:43:02.589Z,96.77
2024-01-24T01:45:29.605Z,98.20
2024-01-24T01:47:58.694Z,98.51
2024-01-24T01:50:26.972Z,98.15
2024-01-24T01:52:54.023Z,99.02
2024-01-24T01:55:21.138Z,96.40
2024-01-24T01:57:49.054Z,98.47
2024-01-24T02:00:22.714Z,97.99
2024-01-24T02:02:50.093Z,96.77
2024-01-24T02:05:18.036Z,98.49
2024-01-24T02:07:45.696Z,98.76
2024-01-24T02:10:16.304Z,98.80
2024-01-24T02:12:43.344Z,97.91
2024-01-24T02:15:11.321Z,97.00
2024-01-24T02:17:38.435Z,99.00
2024-01-24T02:20:09.359Z,98.21
2024-01-24T02:22:36.244Z,98.15
2024-01-24T02:25:03.940Z,96.41
2024-01-24T02:27:30.971Z,98.06
2024-01-24T02:29:59.125Z,99.74
2024-01-24T02:32:26.144Z,99.97
2024-01-24T02:34:53.161Z,98.59
2024-01-24T02:37:22.056Z,99.06
2024-01-24T02:39:49.223Z,99.04
2024-01-24T02:42:16.799Z,99.30
2024-01-24T02:44:44.047Z,99.62
2024-01-24T02:47:11.074Z,97.88
2024-01-24T02:49:38.156Z,98.15
2024-01-24T02:52:05.577Z,100.00
2024-01-24T02:54:32.517Z,99.43
2024-01-24T02:56:59.517Z,98.93
2024-01-24T02:59:27.106Z,99.03
2024-01-24T03:01:54.177Z,96.94
2024-01-24T03:04:21.408Z,97.18
2024-01-24T03:06:48.542Z,96.42
2024-01-24T03:09:15.669Z,95.83
2024-01-24T03:11:43.029Z,96.92
2024-01-24T03:14:10.818Z,98.47
2024-01-24T03:16:37.687Z,99.23
2024-01-24T03:19:06.964Z,95.73
2024-01-24T03:21:34.188Z,96.73
2024-01-24T03:24:01.546Z,97.48
2024-01-24T03:26:28.519Z,97.75
2024-01-24T03:28:55.477Z,100.00
2024-01-24T03:31:22.373Z,99.16
2024-01-24T03:33:49.721Z,100.00
2024-01-24T03:36:16.963Z,100.00
2024-01-24T03:38:44.917Z,100.00
2024-01-24T03:41:11.921Z,100.00
2024-01-24T03:43:41.997Z,99.04
2024-01-24T03:46:08.996Z,98.59
2024-01-24T03:48:36.208Z,100.00
2024-01-24T03:51:03.571Z,99.88
2024-01-24T03:53:30.447Z,98.37
2024-01-24T03:55:57.382Z,98.20
2024-01-24T03:58:24.313Z,98.42
2024-01-24T04:00:54.213Z,98.85
2024-01-24T04:03:21.092Z,100.00
2024-01-24T04:05:48.141Z,98.91
2024-01-24T04:08:15.375Z,99.80
2024-01-24T04:10:42.374Z,96.69
2024-01-24T04:13:09.364Z,97.51
2024-01-24T04:15:36.351Z,98.24
2024-01-24T04:18:03.411Z,96.86
2024-01-24T04:20:30.415Z,95.40
2024-01-24T04:22:57.313Z,97.31
2024-01-24T04:25:24.244Z,97.38
2024-01-24T04:27:51.495Z,96.89
2024-01-24T04:30:18.674Z,98.36
2024-01-24T04:32:45.884Z,98.23
2024-01-24T04:35:13.293Z,96.86
2024-01-24T04:37:40.163Z,98.18
2024-01-24T04:40:08.127Z,99.87
2024-01-24T04:42:35.355Z,99.33
2024-01-24T04:45:02.224Z,98.17
2024-01-24T04:47:29.366Z,98.33
2024-01-24T04:49:56.460Z,97.04
2024-01-24T04:52:23.446Z,99.90
2024-01-24T04:54:50.415Z,100.00
2024-01-24T04:57:17.421Z,100.00
2024-01-24T04:59:50.214Z,99.01
2024-01-24T05:02:23.041Z,99.21
2024-01-24T05:04:50.183Z,99.79
2024-01-24T05:07:17.257Z,96.78
2024-01-24T05:09:44.735Z,97.38
2024-01-24T05:12:12.064Z,96.24
2024-01-24T05:14:38.981Z,99.29
2024-01-24T05:17:05.972Z,100.00
2024-01-24T05:19:34.295Z,100.00
2024-01-24T05:22:01.474Z,96.74
2024-01-24T05:24:28.474Z,99.63
2024-01-24T05:26:55.617Z,97.61
2024-01-24T05:29:22.522Z,97.83
2024-01-24T05:31:49.466Z,98.40
2024-01-24T05:34:16.584Z,100.00
2024-01-24T05:36:43.603Z,95.53
2024-01-24T05:39:10.602Z,97.42
2024-01-24T05:41:37.506Z,97.28
2024-01-24T05:44:04.752Z,98.00
2024-01-24T05:46:32.343Z,96.30
2024-01-24T05:49:02.392Z,99.53
2024-01-24T05:51:30.108Z,99.11
2024-01-24T05:53:57.253Z,97.51
2024-01-24T05:56:24.875Z,98.07
2024-01-24T05:58:51.862Z,99.31
2024-01-24T06:01:19.055Z,97.18
2024-01-24T06:03:46.452Z,98.71
2024-01-24T06:06:13.960Z,95.72
2024-01-24T06:08:41.411Z,97.39
2024-01-24T06:11:08.402Z,98.75
2024-01-24T06:13:35.967Z,100.00
2024-01-24T06:16:03.234Z,99.64
2024-01-24T06:18:30.246Z,98.81
2024-01-24T06:20:57.299Z,99.41
2024-01-24T06:23:24.342Z,95.82
2024-01-24T06:25:51.293Z,96.35
2024-01-24T06:28:18.308Z,98.78
2024-01-24T06:30:45.577Z,97.63
2024-01-24T06:33:14.528Z,98.47
2024-01-24T06:35:41.639Z,97.05
2024-01-24T06:38:08.572Z,97.92
2024-01-24T06:40:35.575Z,96.95
2024-01-24T06:43:02.635Z,98.17
2024-01-24T06:45:29.918Z,97.99
2024-01-24T06:47:56.906Z,98.04
2024-01-24T06:50:25.494Z,97.24
2024-01-24T06:52:52.504Z,97.58
2024-01-24T06:55:19.589Z,98.38
2024-01-24T06:57:46.812Z,97.46
2024-01-24T07:00:14.220Z,96.96
2024-01-24T07:02:41.186Z,98.49
2024-01-24T07:05:08.575Z,99.70
2024-01-24T07:07:37.588Z,99.92
2024-01-24T07:10:04.928Z,98.67
2024-01-24T07:12:31.848Z,98.56
2024-01-24T07:14:58.813Z,98.71
2024-01-24T07:17:25.976Z,98.12
2024-01-24T07:19:53.084Z,98.44
2024-01-24T07:22:20.135Z,97.71
2024-01-24T07:24:47.153Z,97.54
2024-01-24T07:27:14.135Z,97.19
2024-01-24T07:29:41.066Z,97.22
2024-01-24T07:32:07.983Z,98.33
2024-01-24T07:34:35.024Z,98.22
2024-01-24T07:37:02.265Z,96.94
2024-01-24T07:39:30.017Z,99.03
2024-01-24T07:41:57.622Z,99.66
2024-01-24T07:44:25.210Z,99.18
2024-01-24T07:46:52.228Z,99.03
2024-01-24T07:49:19.425Z,98.17
2024-01-24T07:51:48.474Z,98.12
2024-01-24T07:54:20.370Z,98.28
2024-01-24T07:56:48.137Z,98.50
2024-01-24T07:59:17.834Z,98.21
2024-01-24T08:01:49.695Z,98.16
2024-01-24T08:04:18.474Z,97.61
2024-01-24T08:06:50.767Z,96.48
2024-01-24T08:09:19.560Z,96.30
2024-01-24T08:11:46.692Z,97.22
2024-01-24T08:14:14.119Z,95.38
2024-01-24T08:16:56.478Z,89.43
2024-01-24T08:19:23.582Z,84.37
2024-01-24T08:21:50.639Z,79.40
2024-01-24T08:24:17.603Z,78.17
2024-01-24T08:26:46.299Z,76.23
2024-01-24T08:29:22.013Z,74.30
2024-01-24T08:31:53.177Z,74.07
2024-01-24T08:34:20.287Z,73.85
2024-01-24T08:36:47.443Z,72.59
2024-01-24T08:39:16.257Z,70.13
2024-01-24T08:41:43.266Z,68.74
2024-01-24T08:44:10.301Z,70.52
2024-01-24T08:46:37.249Z,69.17
2024-01-24T08:49:04.292Z,69.75
2024-01-24T08:51:33.201Z,69.26
2024-01-24T08:54:01.281Z,66.89
2024-01-24T08:56:28.327Z,66.58
2024-01-24T08:58:55.984Z,63.71
2024-01-24T09:01:23.448Z,62.41
2024-01-24T09:03:52.287Z,63.16
2024-01-24T09:06:21.756Z,61.38
2024-01-24T09:08:55.628Z,64.53
2024-01-24T09:11:27.318Z,67.70
2024-01-24T09:13:58.344Z,65.82
2024-01-24T09:16:25.746Z,66.17
2024-01-24T09:18:52.910Z,63.02
2024-01-24T09:21:20.241Z,64.43
2024-01-24T09:23:51.043Z,63.57
2024-01-24T09:26:18.261Z,58.58
2024-01-24T09:28:45.198Z,59.98
2024-01-24T09:31:12.088Z,59.84
2024-01-24T09:33:40.219Z,59.83
2024-01-24T09:36:07.698Z,58.28
2024-01-24T09:38:34.743Z,56.95
2024-01-24T09:41:10.470Z,56.09
2024-01-24T09:43:40.243Z,58.04
2024-01-24T09:46:13.745Z,57.90
2024-01-24T09:48:43.225Z,57.74
2024-01-24T09:51:10.551Z,56.52
2024-01-24T09:53:40.763Z,57.05
2024-01-24T09:56:08.992Z,54.86
2024-01-24T09:58:35.987Z,51.04
2024-01-24T10:01:05.956Z,50.54
2024-01-24T10:03:36.753Z,52.39
2024-01-24T10:06:10.003Z,51.51
2024-01-24T10:08:37.107Z,48.66
2024-01-24T10:11:04.193Z,45.99
2024-01-24T10:13:32.747Z,45.59
2024-01-24T10:16:01.246Z,44.16
2024-01-24T10:18:28.497Z,47.08
2024-01-24T10:20:56.112Z,43.45
2024-01-24T10:23:23.587Z,43.92
2024-01-24T10:25:51.082Z,46.63
2024-01-24T10:28:18.959Z,46.77
2024-01-24T10:30:50.320Z,45.10
2024-01-24T10:33:19.455Z,41.83
2024-01-24T10:35:47.203Z,40.66
2024-01-24T10:38:16.129Z,41.66
2024-01-24T10:40:43.390Z,40.51
2024-01-24T10:43:13.710Z,41.28
2024-01-24T10:45:46.206Z,44.55
2024-01-24T10:48:13.555Z,44.08
2024-01-24T10:50:41.845Z,43.07
2024-01-24T10:53:10.895Z,43.76
2024-01-24T10:55:39.451Z,43.61
2024-01-24T10:58:11.024Z,47.76
2024-01-24T11:00:41.033Z,45.92
2024-01-24T11:03:09.368Z,48.31
2024-01-24T11:05:46.743Z,46.33
2024-01-24T11:08:25.409Z,44.32
2024-01-24T11:11:04.623Z,40.75
2024-01-24T11:13:36.184Z,44.66
2024-01-24T11:16:30.240Z,46.24
2024-01-24T11:19:01.381Z,46.15
2024-01-24T11:21:32.175Z,45.53
2024-01-24T11:24:00.602Z,42.24
2024-01-24T11:26:27.476Z,40.33
2024-01-24T11:29:14.669Z,38.77
2024-01-24T11:31:43.989Z,38.06
2024-01-24T11:34:13.201Z,34.94
2024-01-24T11:36:52.798Z,42.04
2024-01-24T11:39:32.339Z,41.37
2024-01-24T11:42:27.534Z,39.48
2024-01-24T11:44:54.687Z,37.91
2024-01-24T11:47:25.345Z,37.97
2024-01-24T11:49:52.709Z,37.95
2024-01-24T11:52:23.052Z,36.68
2024-01-24T11:54:53.927Z,38.11
2024-01-24T11:57:21.151Z,38.13
2024-01-24T11:59:48.250Z,38.02
2024-01-24T12:02:15.962Z,38.90
2024-01-24T12:04:42.938Z,39.31
2024-01-24T12:07:10.820Z,43.41
2024-01-24T12:09:37.818Z,45.63
2024-01-24T12:12:05.178Z,46.58
2024-01-24T12:14:32.800Z,43.73
2024-01-24T12:17:00.267Z,40.98
2024-01-24T12:19:27.583Z,38.64
2024-01-24T12:21:54.879Z,39.69
2024-01-24T12:24:23.359Z,37.33
2024-01-24T12:26:52.278Z,35.41
2024-01-24T12:29:22.419Z,34.68
2024-01-24T12:31:50.220Z,33.68
2024-01-24T12:34:22.848Z,35.12
2024-01-24T12:36:50.205Z,35.26
2024-01-24T12:39:26.631Z,36.42
2024-01-24T12:41:53.723Z,39.56
2024-01-24T12:44:21.232Z,37.94
2024-01-24T12:46:57.240Z,37.22
2024-01-24T12:49:26.363Z,38.48
2024-01-24T12:51:54.960Z,36.50
2024-01-24T12:54:23.145Z,37.20
2024-01-24T12:56:51.239Z,36.01
2024-01-24T12:59:19.088Z,37.04
2024-01-24T13:01:46.315Z,37.61
2024-01-24T13:04:13.414Z,37.42
2024-01-24T13:06:41.759Z,39.02
2024-01-24T13:09:10.021Z,38.73
2024-01-24T13:11:37.059Z,40.38
2024-01-24T13:14:04.095Z,40.36
2024-01-24T13:16:31.140Z,38.98
2024-01-24T13:18:58.483Z,37.40
2024-01-24T13:21:26.109Z,37.19
2024-01-24T13:23:53.071Z,38.17
2024-01-24T13:26:20.272Z,38.54
2024-01-24T13:28:47.352Z,41.36
2024-01-24T13:31:14.404Z,40.21
2024-01-24T13:33:42.314Z,38.94
2024-01-24T13:36:10.816Z,38.84
2024-01-24T13:38:38.335Z,39.12
2024-01-24T13:41:05.449Z,42.03
2024-01-24T13:43:32.650Z,41.60
2024-01-24T13:45:59.608Z,41.72
2024-01-24T13:48:27.469Z,41.62
2024-01-24T13:50:56.425Z,43.92
2024-01-24T13:53:24.363Z,43.83
2024-01-24T13:55:51.353Z,44.28
2024-01-24T13:58:19.526Z,43.65
2024-01-24T14:00:46.619Z,43.20
2024-01-24T14:03:13.628Z,43.34
2024-01-24T14:05:42.809Z,43.64
2024-01-24T14:08:10.086Z,41.60
2024-01-24T14:10:37.212Z,43.05
2024-01-24T14:13:04.753Z,41.88
2024-01-24T14:15:34.982Z,41.86
2024-01-24T14:18:04.599Z,40.79
2024-01-24T14:20:31.855Z,41.59
2024-01-24T14:22:58.811Z,41.70
2024-01-24T14:25:25.793Z,41.11
2024-01-24T14:27:52.845Z,42.96
2024-01-24T14:30:19.990Z,44.69
2024-01-24T14:32:47.115Z,46.82
2024-01-24T14:35:20.077Z,51.56
2024-01-24T14:37:47.335Z,52.99
2024-01-24T14:40:17.160Z,54.23
2024-01-24T14:42:44.270Z,55.74
2024-01-24T14:45:11.523Z,56.16
2024-01-24T14:47:38.772Z,57.22
2024-01-24T14:50:08.893Z,58.31
2024-01-24T14:52:36.360Z,56.71
2024-01-24T14:55:04.284Z,56.50
2024-01-24T14:57:33.587Z,56.38
2024-01-24T15:00:01.506Z,56.82
2024-01-24T15:02:28.804Z,57.52
2024-01-24T15:04:56.012Z,58.38
2024-01-24T15:07:23.538Z,58.57
2024-01-24T15:09:50.968Z,58.92
2024-01-24T15:12:18.039Z,59.28
2024-01-24T15:14:44.910Z,59.59
2024-01-24T15:17:11.901Z,59.21
2024-01-24T15:19:47.191Z,59.80
2024-01-24T15:22:17.469Z,61.20
2024-01-24T15:24:45.316Z,63.60
2024-01-24T15:27:12.408Z,64.43
2024-01-24T15:29:40.347Z,62.36
2024-01-24T15:32:07.836Z,63.60
2024-01-24T15:34:35.502Z,66.57
2024-01-24T15:37:02.711Z,67.59
2024-01-24T15:39:29.991Z,68.25
2024-01-24T15:42:01.429Z,67.93
2024-01-24T15:44:29.045Z,68.74
2024-01-24T15:46:58.760Z,68.78
2024-01-24T15:49:25.790Z,69.88
2024-01-24T15:51:53.017Z,70.75
2024-01-24T15:54:20.130Z,70.06
2024-01-24T15:56:47.738Z,69.28
2024-01-24T15:59:14.861Z,70.35
2024-01-24T16:01:49.372Z,70.74
2024-01-24T16:04:20.549Z,70.99
2024-01-24T16:06:47.585Z,71.10
2024-01-24T16:09:15.022Z,71.41
2024-01-24T16:11:42.197Z,71.48
2024-01-24T16:14:09.427Z,71.34
2024-01-24T16:16:36.401Z,72.79
2024-01-24T16:19:03.559Z,73.83
2024-01-24T16:21:30.627Z,74.59
2024-01-24T16:23:57.583Z,76.52
2024-01-24T16:26:24.561Z,76.88
2024-01-24T16:28:51.510Z,77.54
2024-01-24T16:31:19.484Z,78.55
2024-01-24T16:33:46.564Z,78.88
2024-01-24T16:36:13.834Z,80.16
2024-01-24T16:38:41.045Z,80.58
2024-01-24T16:41:09.741Z,81.05
2024-01-24T16:43:39.005Z,81.37
2024-01-24T16:46:07.024Z,81.92
2024-01-24T16:48:34.342Z,81.57
2024-01-24T16:51:01.562Z,81.72
2024-01-24T16:53:29.000Z,82.59
2024-01-24T16:55:55.995Z,83.78
2024-01-24T16:58:22.894Z,83.98
2024-01-24T17:00:50.034Z,84.68
2024-01-24T17:03:17.124Z,84.54
2024-01-24T17:05:44.116Z,85.27
2024-01-24T17:08:11.286Z,85.73
2024-01-24T17:10:38.214Z,84.86
2024-01-24T17:13:05.308Z,85.49
2024-01-24T17:15:32.245Z,86.44
2024-01-24T17:18:02.971Z,86.59
2024-01-24T17:20:30.166Z,85.84
2024-01-24T17:22:58.150Z,86.37
2024-01-24T17:25:25.150Z,87.03
2024-01-24T17:27:52.165Z,86.37
2024-01-24T17:30:19.846Z,86.89
2024-01-24T17:32:46.870Z,87.50
2024-01-24T17:35:13.921Z,87.92
2024-01-24T17:37:40.897Z,89.17
2024-01-24T17:40:09.084Z,88.53
2024-01-24T17:42:36.415Z,88.12
2024-01-24T17:45:03.608Z,88.34
2024-01-24T17:47:31.587Z,88.36
2024-01-24T17:50:00.260Z,89.45
2024-01-24T17:52:27.406Z,88.85
2024-01-24T17:54:57.503Z,89.52
2024-01-24T17:57:24.505Z,89.09
2024-01-24T17:59:51.722Z,89.09
2024-01-24T18:02:18.711Z,89.76
2024-01-24T18:04:45.700Z,90.35
2024-01-24T18:07:12.883Z,91.27
2024-01-24T18:09:39.980Z,91.30
2024-01-24T18:12:07.478Z,91.41
2024-01-24T18:14:34.316Z,91.83
2024-01-24T18:17:01.252Z,91.99
2024-01-24T18:19:31.878Z,90.56
2024-01-24T18:21:59.482Z,90.75
2024-01-24T18:24:26.532Z,91.65
2024-01-24T18:26:54.258Z,91.81
2024-01-24T18:29:21.223Z,90.22
2024-01-24T18:31:48.839Z,88.74
2024-01-24T18:34:17.418Z,88.42
2024-01-24T18:36:44.553Z,89.50
2024-01-24T18:39:11.505Z,88.57
2024-01-24T18:41:38.729Z,89.88
2024-01-24T18:44:05.834Z,91.12
2024-01-24T18:46:33.635Z,91.89
2024-01-24T18:49:04.309Z,91.49
2024-01-24T18:51:31.660Z,91.57
2024-01-24T18:53:58.643Z,92.62
2024-01-24T18:56:25.863Z,93.58
2024-01-24T18:58:52.901Z,92.95
2024-01-24T19:01:20.567Z,93.43
2024-01-24T19:03:55.973Z,93.88
2024-01-24T19:06:24.049Z,94.60
2024-01-24T19:08:51.148Z,92.36
2024-01-24T19:11:18.389Z,92.89
2024-01-24T19:13:45.597Z,93.57
2024-01-24T19:16:12.890Z,93.29
2024-01-24T19:18:40.104Z,92.88
2024-01-24T19:21:07.111Z,93.36
2024-01-24T19:23:34.035Z,94.57
2024-01-24T19:26:01.074Z,93.45
2024-01-24T19:28:27.953Z,92.20
2024-01-24T19:30:55.076Z,93.97
2024-01-24T19:33:22.046Z,93.40
2024-01-24T19:35:48.939Z,94.24
2024-01-24T19:38:16.060Z,92.17
2024-01-24T19:40:43.033Z,93.67
2024-01-24T19:43:10.057Z,93.68
2024-01-24T19:45:37.575Z,93.88
2024-01-24T19:48:05.420Z,94.09
2024-01-24T19:50:32.522Z,94.11
2024-01-24T19:53:02.491Z,93.03
2024-01-24T19:55:29.584Z,93.42
2024-01-24T19:57:56.628Z,92.12
2024-01-24T20:00:24.436Z,92.85
2024-01-24T20:02:51.616Z,94.06
2024-01-24T20:05:19.021Z,94.75
2024-01-24T20:07:47.134Z,93.44
2024-01-24T20:10:14.393Z,91.96
2024-01-24T20:12:41.459Z,91.93
2024-01-24T20:15:09.092Z,92.56
2024-01-24T20:17:36.140Z,93.26
2024-01-24T20:20:03.805Z,93.14
2024-01-24T20:22:30.766Z,92.50
2024-01-24T20:24:57.661Z,93.38
2024-01-24T20:27:24.877Z,93.87
2024-01-24T20:29:53.195Z,93.29
2024-01-24T20:32:21.191Z,94.61
2024-01-24T20:34:49.751Z,93.83
2024-01-24T20:37:18.799Z,94.27
2024-01-24T20:39:45.932Z,93.76
2024-01-24T20:42:14.878Z,94.29
2024-01-24T20:44:44.536Z,93.38
2024-01-24T20:47:15.688Z,94.43
2024-01-24T20:49:44.063Z,94.85
2024-01-24T20:52:11.094Z,95.11
2024-01-24T20:54:38.134Z,95.38
2024-01-24T20:57:05.388Z,94.43
2024-01-24T20:59:32.668Z,93.44
2024-01-24T21:02:00.823Z,94.19
2024-01-24T21:04:28.327Z,95.06
2024-01-24T21:06:55.585Z,94.65
2024-01-24T21:09:22.638Z,94.29
2024-01-24T21:11:49.658Z,93.87
2024-01-24T21:14:16.724Z,95.33
2024-01-24T21:16:44.538Z,94.79
2024-01-24T21:19:17.570Z,93.13
2024-01-24T21:21:45.464Z,94.59
2024-01-24T21:24:14.012Z,97.06
2024-01-24T21:26:41.417Z,95.21
2024-01-24T21:29:08.690Z,95.96
2024-01-24T21:31:35.611Z,94.48
2024-01-24T21:34:02.910Z,93.51
2024-01-24T21:36:29.982Z,95.18
2024-01-24T21:38:56.924Z,93.42
2024-01-24T21:41:24.385Z,93.53
2024-01-24T21:43:51.514Z,94.03
2024-01-24T21:46:18.725Z,94.05
2024-01-24T21:48:45.793Z,93.26
2024-01-24T21:51:12.816Z,94.23
2024-01-24T21:53:39.683Z,94.05
2024-01-24T21:56:06.924Z,94.63
2024-01-24T21:58:36.233Z,92.28
2024-01-24T22:01:03.245Z,94.11
2024-01-24T22:03:30.267Z,92.68
2024-01-24T22:05:57.317Z,92.20
2024-01-24T22:08:24.356Z,94.48
2024-01-24T22:10:51.345Z,97.98
2024-01-24T22:13:18.354Z,95.79
2024-01-24T22:15:45.415Z,95.71
2024-01-24T22:18:13.862Z,94.67
2024-01-24T22:20:40.936Z,92.59
2024-01-24T22:23:08.735Z,93.18
2024-01-24T22:25:35.749Z,93.60
2024-01-24T22:28:02.692Z,95.99
2024-01-24T22:30:29.789Z,92.80
2024-01-24T22:32:56.845Z,94.57
2024-01-24T22:35:23.838Z,93.88
2024-01-24T22:37:50.826Z,95.43
2024-01-24T22:40:18.580Z,92.64
2024-01-24T22:42:45.784Z,94.17
2024-01-24T22:45:14.931Z,92.17
2024-01-24T22:47:41.912Z,95.04
2024-01-24T22:50:10.073Z,94.68
2024-01-24T22:52:37.150Z,91.94
2024-01-24T22:55:04.510Z,95.28
2024-01-24T22:57:31.485Z,95.56
2024-01-24T22:59:58.833Z,94.80
2024-01-24T23:02:26.732Z,93.83
2024-01-24T23:04:56.116Z,94.20
2024-01-24T23:07:23.293Z,94.91
2024-01-24T23:09:50.373Z,94.68
2024-01-24T23:12:18.075Z,96.10
2024-01-24T23:14:45.286Z,96.50
2024-01-24T23:17:12.257Z,96.04
2024-01-24T23:19:39.392Z,95.53
2024-01-24T23:22:06.513Z,94.89
2024-01-24T23:24:33.433Z,94.11
2024-01-24T23:27:00.452Z,95.33
2024-01-24T23:29:27.385Z,94.25
2024-01-24T23:31:54.250Z,94.58
2024-01-24T23:34:21.369Z,94.21
2024-01-24T23:36:48.455Z,93.77
2024-01-24T23:39:15.423Z,94.49
2024-01-24T23:41:42.597Z,94.95
2024-01-24T23:44:11.676Z,94.12
2024-01-24T23:46:38.868Z,95.39
2024-01-24T23:49:06.148Z,95.58
2024-01-24T23:51:36.226Z,94.48
2024-01-24T23:54:04.037Z,94.28
2024-01-24T23:56:30.961Z,97.45
2024-01-24T23:58:57.903Z,95.28
